createdAt,value
2017-11-14T00:00:48.162Z,9.60
2017-11-14T00:01:48.157Z,10.00
2017-11-14T00:02:48.151Z,10.30
2017-11-14T00:03:48.145Z,10.10
2017-11-14T00:04:48.139Z,9.70
2017-11-14T00:05:48.136Z,10.70
2017-11-14T00:06:48.176Z,10.40
2017-11-14T00:07:48.121Z,10.70
2017-11-14T00:08:48.115Z,11.60
2017-11-14T00:09:48.112Z,12.00
2017-11-14T00:10:48.102Z,10.90
2017-11-14T00:11:48.097Z,10.70
2017-11-14T00:12:48.092Z,10.30
2017-11-14T00:13:48.086Z,9.20
2017-11-14T00:14:48.080Z,10.00
2017-11-14T00:15:48.073Z,10.70
2017-11-14T00:16:48.069Z,10.80
2017-11-14T00:17:48.062Z,10.30
2017-11-14T00:18:48.064Z,10.50
2017-11-14T00:19:48.052Z,9.20
2017-11-14T00:20:48.043Z,9.70
2017-11-14T00:21:48.037Z,9.50
2017-11-14T00:22:48.031Z,10.30
2017-11-14T00:23:48.026Z,10.00
2017-11-14T00:24:48.021Z,10.80
2017-11-14T00:25:48.013Z,10.30
2017-11-14T00:26:48.008Z,10.50
2017-11-14T00:27:48.002Z,10.40
2017-11-14T00:28:47.996Z,11.40
2017-11-14T00:29:47.990Z,10.90
2017-11-14T00:30:47.984Z,10.10
2017-11-14T00:31:47.978Z,11.10
2017-11-14T00:32:47.972Z,9.50
2017-11-14T00:33:47.967Z,10.20
2017-11-14T00:34:47.960Z,10.20
2017-11-14T00:35:47.956Z,9.70
2017-11-14T00:36:47.949Z,10.00
2017-11-14T00:37:47.943Z,9.30
2017-11-14T00:38:47.938Z,9.50
2017-11-14T00:39:47.931Z,9.60
2017-11-14T00:40:47.924Z,10.00
2017-11-14T00:41:47.919Z,10.70
2017-11-14T00:42:47.912Z,11.60
2017-11-14T00:43:47.906Z,11.30
2017-11-14T00:44:47.900Z,10.80
2017-11-14T00:45:47.895Z,11.00
2017-11-14T00:46:47.895Z,11.10
2017-11-14T00:47:47.881Z,11.60
2017-11-14T00:48:47.877Z,12.00
2017-11-14T00:49:47.870Z,11.20
2017-11-14T00:50:47.865Z,11.20
2017-11-14T00:51:47.859Z,10.40
2017-11-14T00:52:47.853Z,12.50
2017-11-14T00:53:47.848Z,13.80
2017-11-14T00:54:47.840Z,13.50
2017-11-14T00:55:47.834Z,12.70
2017-11-14T00:56:47.828Z,11.80
2017-11-14T00:57:47.824Z,12.20
2017-11-14T00:58:47.816Z,12.50
2017-11-14T00:59:47.811Z,11.40
2017-11-14T01:00:47.854Z,11.60
2017-11-14T01:01:47.799Z,11.10
2017-11-14T01:02:47.792Z,10.60
2017-11-14T01:03:47.790Z,10.10
2017-11-14T01:04:47.780Z,10.30
2017-11-14T01:05:47.774Z,12.00
2017-11-14T01:06:47.769Z,12.60
2017-11-14T01:07:47.763Z,11.50
2017-11-14T01:08:47.757Z,12.10
2017-11-14T01:09:47.751Z,11.20
2017-11-14T01:10:47.745Z,11.40
2017-11-14T01:11:47.740Z,11.80
2017-11-14T01:12:47.733Z,11.90
2017-11-14T01:13:47.728Z,12.70
2017-11-14T01:14:47.720Z,12.90
2017-11-14T01:15:47.714Z,13.10
2017-11-14T01:16:47.707Z,11.80
2017-11-14T01:17:47.702Z,12.40
2017-11-14T01:18:47.695Z,10.30
2017-11-14T01:19:47.689Z,9.80
2017-11-14T01:20:47.683Z,9.70
2017-11-14T01:21:47.678Z,10.30
2017-11-14T01:22:47.671Z,10.70
2017-11-14T01:23:47.666Z,9.40
2017-11-14T01:24:47.660Z,9.90
2017-11-14T01:25:47.654Z,9.10
2017-11-14T01:26:47.664Z,9.60
2017-11-14T01:27:47.641Z,9.10
2017-11-14T01:28:47.635Z,9.80
2017-11-14T01:29:47.631Z,9.40
2017-11-14T01:30:47.624Z,10.00
2017-11-14T01:31:47.623Z,10.00
2017-11-14T01:32:47.610Z,10.00
2017-11-14T01:33:47.612Z,9.20
2017-11-14T01:34:47.598Z,9.50
2017-11-14T01:35:47.593Z,9.80
2017-11-14T01:36:47.586Z,9.80
2017-11-14T01:37:47.581Z,9.90
2017-11-14T01:38:47.575Z,9.90
2017-11-14T01:39:47.568Z,8.80
2017-11-14T01:40:47.576Z,9.70
2017-11-14T01:41:47.556Z,10.40
2017-11-14T01:42:47.550Z,10.60
2017-11-14T01:43:47.544Z,11.20
2017-11-14T01:44:47.538Z,9.70
2017-11-14T01:45:47.535Z,9.10
2017-11-14T01:46:47.525Z,8.70
2017-11-14T01:47:47.521Z,9.20
2017-11-14T01:48:47.514Z,9.20
2017-11-14T01:49:47.509Z,7.50
2017-11-14T01:50:47.501Z,9.70
2017-11-14T01:51:47.499Z,9.00
2017-11-14T01:52:47.490Z,9.20
2017-11-14T01:53:47.485Z,8.50
2017-11-14T01:54:47.478Z,8.80
2017-11-14T01:55:47.472Z,8.30
2017-11-14T01:56:47.465Z,8.90
2017-11-14T01:57:47.465Z,8.70
2017-11-14T01:58:47.454Z,8.90
2017-11-14T01:59:47.449Z,8.40
2017-11-14T02:00:47.442Z,8.60
2017-11-14T02:01:47.436Z,8.30
2017-11-14T02:02:47.428Z,9.10
2017-11-14T02:03:47.423Z,9.40
2017-11-14T02:04:47.417Z,9.30
2017-11-14T02:05:47.412Z,9.30
2017-11-14T02:06:47.406Z,10.30
2017-11-14T02:07:47.399Z,9.50
2017-11-14T02:08:47.393Z,11.10
2017-11-14T02:09:47.386Z,10.10
2017-11-14T02:10:47.380Z,10.60
2017-11-14T02:11:47.373Z,10.90
2017-11-14T02:12:47.369Z,10.40
2017-11-14T02:13:47.387Z,9.10
2017-11-14T02:14:47.356Z,10.30
2017-11-14T02:15:47.351Z,8.70
2017-11-14T02:16:47.346Z,9.50
2017-11-14T02:17:47.340Z,9.70
2017-11-14T02:18:47.333Z,9.80
2017-11-14T02:19:47.327Z,9.20
2017-11-14T02:20:47.322Z,9.20
2017-11-14T02:21:47.316Z,9.00
2017-11-14T02:22:47.308Z,9.00
2017-11-14T02:23:47.306Z,7.90
2017-11-14T02:24:47.302Z,8.10
2017-11-14T02:25:47.291Z,8.40
2017-11-14T02:26:47.285Z,7.70
2017-11-14T02:27:47.278Z,7.40
2017-11-14T02:28:47.273Z,8.00
2017-11-14T02:29:47.267Z,8.30
2017-11-14T02:30:47.260Z,8.20
2017-11-14T02:31:47.254Z,8.10
2017-11-14T02:32:47.247Z,8.70
2017-11-14T02:33:47.243Z,8.10
2017-11-14T02:34:47.237Z,8.20
2017-11-14T02:35:47.231Z,8.20
2017-11-14T02:36:47.225Z,8.80
2017-11-14T02:37:47.217Z,8.10
2017-11-14T02:38:47.211Z,7.40
2017-11-14T02:39:47.215Z,8.30
2017-11-14T02:40:47.200Z,8.50
2017-11-14T02:41:47.196Z,8.50
2017-11-14T02:42:47.188Z,8.30
2017-11-14T02:43:47.192Z,8.40
2017-11-14T02:44:47.177Z,7.80
2017-11-14T02:45:47.173Z,8.90
2017-11-14T02:46:47.162Z,8.30
2017-11-14T02:47:47.158Z,8.30
2017-11-14T02:48:47.152Z,8.80
2017-11-14T02:49:47.148Z,8.70
2017-11-14T02:50:47.138Z,9.20
2017-11-14T02:51:47.140Z,9.10
2017-11-14T02:52:47.127Z,8.30
2017-11-14T02:53:47.123Z,9.20
2017-11-14T02:54:47.115Z,8.80
2017-11-14T02:55:47.115Z,9.40
2017-11-14T02:56:47.103Z,8.80
2017-11-14T02:57:47.100Z,7.80
2017-11-14T02:58:47.090Z,8.10
2017-11-14T02:59:47.084Z,8.90
2017-11-14T03:00:47.079Z,8.60
2017-11-14T03:01:47.073Z,8.70
2017-11-14T03:02:47.066Z,8.00
2017-11-14T03:03:47.061Z,8.50
2017-11-14T03:04:47.053Z,7.90
2017-11-14T03:05:47.050Z,8.30
2017-11-14T03:06:47.041Z,8.00
2017-11-14T03:07:47.035Z,7.30
2017-11-14T03:08:47.033Z,8.50
2017-11-14T03:09:47.025Z,7.60
2017-11-14T03:10:47.016Z,7.80
2017-11-14T03:11:47.012Z,7.60
2017-11-14T03:12:47.010Z,8.30
2017-11-14T03:13:46.999Z,8.20
2017-11-14T03:14:46.993Z,8.40
2017-11-14T03:15:46.987Z,7.40
2017-11-14T03:16:46.980Z,8.60
2017-11-14T03:17:46.975Z,7.80
2017-11-14T03:18:46.969Z,8.10
2017-11-14T03:19:46.962Z,7.90
2017-11-14T03:20:46.955Z,10.10
2017-11-14T03:21:46.951Z,10.70
2017-11-14T03:22:46.944Z,9.90
2017-11-14T03:23:46.937Z,9.70
2017-11-14T03:24:46.932Z,10.70
2017-11-14T03:25:46.930Z,9.90
2017-11-14T03:26:46.918Z,13.90
2017-11-14T03:27:46.913Z,14.70
2017-11-14T03:28:46.906Z,16.60
2017-11-14T03:29:46.901Z,12.50
2017-11-14T03:30:46.898Z,12.30
2017-11-14T03:31:46.889Z,13.40
2017-11-14T03:32:46.886Z,13.60
2017-11-14T03:33:46.877Z,15.00
2017-11-14T03:34:46.871Z,13.60
2017-11-14T03:35:46.864Z,13.10
2017-11-14T03:36:46.858Z,12.60
2017-11-14T03:37:46.852Z,13.40
2017-11-14T03:38:46.845Z,13.60
2017-11-14T03:39:46.840Z,16.00
2017-11-14T03:40:46.835Z,15.60
2017-11-14T03:41:46.827Z,13.00
2017-11-14T03:42:46.820Z,14.90
2017-11-14T03:43:46.814Z,15.00
2017-11-14T03:44:46.809Z,14.60
2017-11-14T03:45:46.804Z,12.40
2017-11-14T03:46:46.795Z,11.00
2017-11-14T03:47:46.789Z,14.70
2017-11-14T03:48:46.788Z,13.80
2017-11-14T03:49:46.778Z,15.30
2017-11-14T03:50:46.772Z,13.30
2017-11-14T03:51:46.766Z,18.30
2017-11-14T03:52:46.760Z,17.00
2017-11-14T03:53:46.753Z,13.80
2017-11-14T03:54:46.746Z,13.90
2017-11-14T03:55:46.742Z,20.80
2017-11-14T03:56:46.735Z,26.50
2017-11-14T03:57:46.729Z,16.20
2017-11-14T03:58:46.722Z,14.10
2017-11-14T03:59:46.714Z,11.90
2017-11-14T04:00:46.710Z,10.00
2017-11-14T04:01:46.704Z,12.30
2017-11-14T04:02:46.696Z,11.00
2017-11-14T04:03:46.698Z,12.00
2017-11-14T04:04:46.684Z,15.90
2017-11-14T04:05:46.680Z,18.60
2017-11-14T04:06:46.671Z,18.60
2017-11-14T04:07:46.667Z,12.90
2017-11-14T04:08:46.660Z,13.40
2017-11-14T04:09:46.653Z,13.50
2017-11-14T04:10:46.657Z,12.20
2017-11-14T04:11:46.641Z,13.40
2017-11-14T04:12:46.634Z,12.60
2017-11-14T04:13:46.628Z,11.60
2017-11-14T04:14:46.622Z,14.60
2017-11-14T04:15:46.666Z,12.40
2017-11-14T04:16:46.610Z,13.30
2017-11-14T04:17:46.604Z,13.00
2017-11-14T04:18:46.597Z,12.00
2017-11-14T04:19:46.591Z,11.60
2017-11-14T04:20:46.584Z,14.10
2017-11-14T04:21:46.579Z,11.70
2017-11-14T04:22:46.571Z,11.70
2017-11-14T04:23:46.566Z,12.00
2017-11-14T04:24:46.559Z,10.50
2017-11-14T04:25:46.557Z,9.50
2017-11-14T04:26:46.546Z,9.70
2017-11-14T04:27:46.545Z,8.60
2017-11-14T04:28:46.534Z,7.60
2017-11-14T04:29:46.528Z,8.20
2017-11-14T04:30:46.521Z,8.00
2017-11-14T04:31:46.516Z,8.10
2017-11-14T04:32:46.509Z,8.20
2017-11-14T04:33:46.502Z,7.70
2017-11-14T04:34:46.495Z,7.90
2017-11-14T04:35:46.490Z,8.70
2017-11-14T04:36:46.483Z,7.80
2017-11-14T04:37:46.477Z,9.40
2017-11-14T04:38:46.469Z,9.60
2017-11-14T04:39:46.464Z,9.20
2017-11-14T04:40:46.507Z,8.80
2017-11-14T04:41:46.452Z,9.20
2017-11-14T04:42:46.445Z,9.30
2017-11-14T04:43:46.438Z,10.70
2017-11-14T04:44:46.433Z,11.90
2017-11-14T04:45:46.426Z,14.10
2017-11-14T04:46:46.420Z,14.50
2017-11-14T04:47:46.412Z,12.40
2017-11-14T04:48:46.406Z,11.50
2017-11-14T04:49:46.400Z,12.50
2017-11-14T04:50:46.445Z,12.30
2017-11-14T04:51:46.387Z,10.90
2017-11-14T04:52:46.386Z,11.50
2017-11-14T04:53:46.374Z,13.20
2017-11-14T04:54:46.367Z,13.40
2017-11-14T04:55:46.361Z,13.30
2017-11-14T04:56:46.355Z,11.50
2017-11-14T04:57:46.349Z,10.40
2017-11-14T04:58:46.341Z,8.80
2017-11-14T04:59:46.334Z,8.00
2017-11-14T05:00:46.328Z,8.30
2017-11-14T05:01:46.322Z,8.40
2017-11-14T05:02:46.315Z,8.00
2017-11-14T05:03:46.310Z,7.40
2017-11-14T05:04:46.303Z,9.50
2017-11-14T05:05:46.309Z,14.90
2017-11-14T05:06:46.290Z,14.30
2017-11-14T05:07:46.282Z,14.10
2017-11-14T05:08:46.280Z,15.30
2017-11-14T05:09:46.271Z,13.50
2017-11-14T05:10:46.264Z,13.10
2017-11-14T05:11:46.257Z,14.00
2017-11-14T05:12:46.250Z,11.10
2017-11-14T05:13:46.244Z,13.90
2017-11-14T05:14:46.238Z,15.80
2017-11-14T05:15:46.231Z,14.40
2017-11-14T05:16:46.226Z,13.70
2017-11-14T05:17:46.219Z,17.30
2017-11-14T05:18:46.209Z,16.40
2017-11-14T05:19:46.203Z,17.00
2017-11-14T05:20:46.197Z,17.30
2017-11-14T05:21:46.190Z,15.80
2017-11-14T05:22:46.182Z,17.60
2017-11-14T05:23:46.176Z,17.40
2017-11-14T05:24:46.169Z,12.80
2017-11-14T05:25:46.163Z,15.50
2017-11-14T05:26:46.154Z,16.00
2017-11-14T05:27:46.149Z,16.20
2017-11-14T05:28:46.142Z,17.00
2017-11-14T05:29:46.136Z,15.10
2017-11-14T05:30:46.128Z,16.10
2017-11-14T05:31:46.122Z,17.50
2017-11-14T05:32:46.115Z,17.10
2017-11-14T05:33:46.108Z,17.40
2017-11-14T05:34:46.101Z,16.70
2017-11-14T05:35:46.094Z,17.40
2017-11-14T05:36:46.088Z,17.30
2017-11-14T05:37:46.081Z,20.20
2017-11-14T05:38:46.073Z,18.60
2017-11-14T05:39:46.072Z,16.90
2017-11-14T05:40:46.061Z,12.90
2017-11-14T05:41:46.054Z,13.30
2017-11-14T05:42:46.046Z,15.70
2017-11-14T05:43:46.040Z,19.50
2017-11-14T05:44:46.033Z,16.00
2017-11-14T05:45:46.027Z,16.10
2017-11-14T05:46:46.019Z,19.00
2017-11-14T05:47:46.014Z,14.20
2017-11-14T05:48:46.005Z,13.70
2017-11-14T05:49:45.998Z,17.60
2017-11-14T05:50:45.991Z,17.20
2017-11-14T05:51:46.336Z,19.20
2017-11-14T05:52:45.978Z,14.90
2017-11-14T05:53:45.976Z,15.30
2017-11-14T05:54:45.967Z,15.10
2017-11-14T05:55:45.960Z,16.00
2017-11-14T05:56:45.952Z,17.70
2017-11-14T05:57:45.946Z,15.00
2017-11-14T05:58:45.938Z,15.60
2017-11-14T05:59:45.932Z,14.40
2017-11-14T06:00:45.925Z,18.60
2017-11-14T06:01:45.917Z,18.00
2017-11-14T06:02:45.912Z,15.40
2017-11-14T06:03:45.904Z,17.40
2017-11-14T06:04:45.899Z,19.30
2017-11-14T06:05:45.944Z,16.80
2017-11-14T06:06:45.885Z,17.20
2017-11-14T06:07:45.879Z,19.10
2017-11-14T06:08:45.873Z,22.60
2017-11-14T06:09:45.865Z,19.30
2017-11-14T06:10:45.859Z,20.40
2017-11-14T06:11:45.853Z,22.60
2017-11-14T06:12:45.898Z,21.00
2017-11-14T06:13:45.839Z,21.40
2017-11-14T06:14:45.833Z,17.70
2017-11-14T06:15:45.825Z,17.60
2017-11-14T06:16:45.818Z,18.90
2017-11-14T06:17:45.816Z,19.80
2017-11-14T06:18:45.806Z,22.70
2017-11-14T06:19:45.797Z,16.80
2017-11-14T06:20:45.793Z,17.10
2017-11-14T06:21:45.785Z,13.80
2017-11-14T06:22:45.777Z,12.90
2017-11-14T06:23:45.772Z,11.20
2017-11-14T06:24:45.766Z,11.00
2017-11-14T06:25:45.758Z,11.00
2017-11-14T06:26:45.751Z,10.10
2017-11-14T06:27:45.745Z,10.20
2017-11-14T06:28:45.737Z,11.50
2017-11-14T06:29:45.731Z,10.70
2017-11-14T06:30:45.724Z,9.80
2017-11-14T06:31:45.718Z,10.20
2017-11-14T06:32:45.711Z,11.40
2017-11-14T06:33:45.704Z,10.30
2017-11-14T06:34:45.706Z,13.60
2017-11-14T06:35:45.689Z,13.70
2017-11-14T06:36:45.686Z,15.50
2017-11-14T06:37:45.676Z,13.80
2017-11-14T06:38:45.670Z,13.40
2017-11-14T06:39:45.663Z,15.20
2017-11-14T06:40:45.656Z,13.70
2017-11-14T06:41:45.672Z,15.50
2017-11-14T06:42:45.642Z,14.10
2017-11-14T06:43:45.634Z,15.40
2017-11-14T06:44:45.629Z,19.20
2017-11-14T06:45:45.621Z,24.40
2017-11-14T06:46:45.613Z,19.70
2017-11-14T06:47:45.607Z,18.00
2017-11-14T06:48:45.600Z,15.00
2017-11-14T06:49:45.592Z,15.90
2017-11-14T06:50:45.589Z,18.40
2017-11-14T06:51:45.578Z,17.90
2017-11-14T06:52:45.571Z,14.70
2017-11-14T06:53:45.566Z,18.30
2017-11-14T06:54:45.557Z,19.00
2017-11-14T06:55:45.550Z,16.60
2017-11-14T06:56:45.549Z,17.30
2017-11-14T06:57:45.537Z,16.10
2017-11-14T06:58:45.530Z,16.70
2017-11-14T06:59:45.529Z,16.30
2017-11-14T07:00:45.520Z,16.10
2017-11-14T07:01:45.512Z,16.00
2017-11-14T07:02:45.504Z,14.50
2017-11-14T07:03:45.497Z,13.30
2017-11-14T07:04:45.502Z,15.80
2017-11-14T07:05:45.484Z,14.80
2017-11-14T07:06:45.477Z,18.30
2017-11-14T07:07:45.470Z,15.40
2017-11-14T07:08:45.464Z,15.90
2017-11-14T07:09:45.458Z,16.70
2017-11-14T07:10:45.450Z,21.30
2017-11-14T07:11:45.443Z,15.80
2017-11-14T07:12:45.438Z,17.90
2017-11-14T07:13:45.432Z,19.40
2017-11-14T07:14:45.429Z,15.60
2017-11-14T07:15:45.420Z,15.40
2017-11-14T07:16:45.412Z,15.90
2017-11-14T07:17:45.408Z,15.20
2017-11-14T07:18:45.413Z,16.60
2017-11-14T07:19:45.395Z,15.00
2017-11-14T07:20:45.387Z,12.60
2017-11-14T07:21:45.381Z,12.50
2017-11-14T07:22:45.373Z,12.00
2017-11-14T07:23:45.369Z,10.80
2017-11-14T07:24:45.361Z,12.50
2017-11-14T07:25:45.357Z,13.70
2017-11-14T07:26:45.349Z,12.70
2017-11-14T07:27:45.343Z,12.40
2017-11-14T07:28:45.340Z,12.40
2017-11-14T07:29:45.333Z,12.30
2017-11-14T07:30:45.325Z,11.40
2017-11-14T07:31:45.319Z,10.40
2017-11-14T07:32:45.313Z,11.00
2017-11-14T07:33:45.308Z,12.40
2017-11-14T07:34:45.301Z,12.20
2017-11-14T07:35:45.295Z,12.90
2017-11-14T07:36:45.340Z,12.60
2017-11-14T07:37:45.283Z,12.30
2017-11-14T07:38:45.278Z,10.60
2017-11-14T07:39:45.273Z,10.00
2017-11-14T07:40:45.269Z,10.50
2017-11-14T07:41:45.262Z,10.20
2017-11-14T07:42:45.257Z,11.60
2017-11-14T07:43:45.273Z,10.70
2017-11-14T07:44:45.246Z,10.70
2017-11-14T07:45:45.243Z,10.40
2017-11-14T07:46:45.235Z,10.70
2017-11-14T07:47:45.230Z,9.70
2017-11-14T07:48:45.227Z,9.20
2017-11-14T07:49:45.222Z,10.70
2017-11-14T07:50:45.218Z,11.10
2017-11-14T07:51:45.213Z,10.10
2017-11-14T07:52:45.210Z,11.40
2017-11-14T07:53:45.209Z,10.40
2017-11-14T07:54:45.203Z,9.50
2017-11-14T07:55:45.202Z,9.00
2017-11-14T07:56:45.201Z,9.10
2017-11-14T07:57:45.197Z,9.30
2017-11-14T07:58:45.195Z,9.20
2017-11-14T07:59:45.193Z,10.40
2017-11-14T08:00:45.191Z,9.30
2017-11-14T08:01:45.191Z,8.30
2017-11-14T08:02:45.186Z,9.30
2017-11-14T08:03:45.186Z,8.50
2017-11-14T08:04:45.234Z,8.90
2017-11-14T08:05:45.182Z,8.90
2017-11-14T08:06:45.180Z,8.70
2017-11-14T08:07:45.176Z,8.70
2017-11-14T08:08:45.173Z,8.20
2017-11-14T08:09:45.172Z,8.60
2017-11-14T08:10:45.168Z,8.30
2017-11-14T08:11:45.165Z,7.80
2017-11-14T08:12:45.162Z,8.20
2017-11-14T08:13:45.160Z,8.60
2017-11-14T08:14:45.158Z,8.80
2017-11-14T08:15:45.156Z,8.10
2017-11-14T08:16:45.154Z,7.70
2017-11-14T08:17:45.152Z,8.60
2017-11-14T08:18:45.149Z,7.70
2017-11-14T08:19:45.153Z,7.40
2017-11-14T08:20:45.159Z,8.00
2017-11-14T08:21:45.164Z,6.60
2017-11-14T08:22:45.144Z,6.20
2017-11-14T08:23:45.193Z,7.10
2017-11-14T08:24:45.144Z,7.10
2017-11-14T08:25:45.143Z,7.50
2017-11-14T08:26:45.141Z,7.20
2017-11-14T08:27:45.141Z,7.60
2017-11-14T08:28:45.141Z,8.40
2017-11-14T08:29:45.139Z,8.20
2017-11-14T08:30:45.137Z,7.90
2017-11-14T08:31:45.136Z,8.50
2017-11-14T08:32:45.135Z,8.00
2017-11-14T08:33:45.138Z,8.70
2017-11-14T08:34:45.132Z,7.70
2017-11-14T08:35:45.130Z,7.30
2017-11-14T08:36:45.129Z,7.50
2017-11-14T08:37:45.126Z,7.80
2017-11-14T08:38:45.124Z,8.10
2017-11-14T08:39:45.177Z,8.60
2017-11-14T08:40:45.122Z,8.20
2017-11-14T08:41:45.117Z,8.30
2017-11-14T08:42:45.114Z,8.30
2017-11-14T08:43:45.112Z,8.40
2017-11-14T08:44:45.111Z,8.50
2017-11-14T08:45:45.108Z,7.80
2017-11-14T08:46:45.105Z,8.00
2017-11-14T08:47:45.101Z,8.20
2017-11-14T08:48:45.100Z,8.20
2017-11-14T08:49:45.097Z,8.30
2017-11-14T08:50:45.093Z,7.70
2017-11-14T08:51:45.090Z,7.80
2017-11-14T08:52:45.088Z,7.70
2017-11-14T08:53:45.086Z,7.40
2017-11-14T08:54:45.108Z,7.60
2017-11-14T08:55:45.080Z,8.60
2017-11-14T08:56:45.078Z,8.00
2017-11-14T08:57:45.076Z,7.80
2017-11-14T08:58:45.072Z,7.60
2017-11-14T08:59:45.069Z,7.60
2017-11-14T09:00:45.069Z,7.50
2017-11-14T09:01:45.064Z,7.90
2017-11-14T09:02:45.060Z,7.80
2017-11-14T09:03:45.059Z,7.60
2017-11-14T09:04:45.057Z,6.70
2017-11-14T09:05:45.052Z,7.20
2017-11-14T09:06:45.049Z,7.10
2017-11-14T09:07:45.047Z,8.00
2017-11-14T09:08:45.048Z,7.40
2017-11-14T09:09:45.051Z,7.50
2017-11-14T09:10:45.037Z,8.00
2017-11-14T09:11:45.033Z,8.00
2017-11-14T09:12:45.032Z,7.80
2017-11-14T09:13:45.028Z,7.70
2017-11-14T09:14:45.024Z,7.40
2017-11-14T09:15:45.022Z,6.80
2017-11-14T09:16:45.020Z,8.10
2017-11-14T09:17:45.017Z,8.20
2017-11-14T09:18:45.018Z,7.70
2017-11-14T09:19:45.013Z,7.80
2017-11-14T09:20:45.009Z,8.10
2017-11-14T09:21:45.007Z,7.80
2017-11-14T09:22:45.004Z,8.10
2017-11-14T09:23:45.003Z,8.10
2017-11-14T09:24:45.004Z,7.80
2017-11-14T09:25:44.999Z,8.30
2017-11-14T09:26:44.999Z,9.10
2017-11-14T09:27:44.997Z,8.20
2017-11-14T09:28:44.992Z,8.90
2017-11-14T09:29:44.991Z,9.80
2017-11-14T09:30:44.988Z,9.10
2017-11-14T09:31:44.989Z,8.70
2017-11-14T09:32:44.985Z,9.00
2017-11-14T09:33:44.987Z,9.00
2017-11-14T09:34:44.981Z,9.80
2017-11-14T09:35:44.980Z,10.20
2017-11-14T09:36:44.977Z,10.10
2017-11-14T09:37:44.976Z,9.10
2017-11-14T09:38:44.972Z,10.40
2017-11-14T09:39:44.971Z,9.30
2017-11-14T09:40:44.969Z,9.60
2017-11-14T09:41:44.967Z,9.40
2017-11-14T09:42:44.966Z,8.90
2017-11-14T09:43:44.969Z,8.40
2017-11-14T09:44:44.962Z,9.20
2017-11-14T09:45:44.963Z,8.30
2017-11-14T09:46:44.960Z,9.20
2017-11-14T09:47:44.959Z,9.30
2017-11-14T09:48:44.959Z,8.70
2017-11-14T09:49:45.008Z,8.60
2017-11-14T09:50:44.957Z,9.10
2017-11-14T09:51:44.956Z,9.40
2017-11-14T09:52:44.958Z,8.80
2017-11-14T09:53:44.957Z,8.90
2017-11-14T09:54:44.955Z,8.40
2017-11-14T09:55:44.956Z,8.10
2017-11-14T09:56:44.955Z,7.80
2017-11-14T09:57:44.956Z,8.50
2017-11-14T09:58:44.956Z,8.30
2017-11-14T09:59:44.956Z,6.80
2017-11-14T10:00:44.957Z,7.30
2017-11-14T10:01:44.956Z,8.30
2017-11-14T10:02:44.957Z,8.30
2017-11-14T10:03:44.955Z,7.90
2017-11-14T10:04:45.106Z,7.20
2017-11-14T10:05:44.955Z,7.00
2017-11-14T10:06:44.954Z,7.90
2017-11-14T10:07:44.955Z,7.30
2017-11-14T10:08:44.953Z,7.50
2017-11-14T10:09:44.956Z,7.90
2017-11-14T10:10:44.951Z,7.00
2017-11-14T10:11:44.951Z,8.70
2017-11-14T10:12:44.951Z,7.70
2017-11-14T10:13:44.950Z,7.20
2017-11-14T10:14:44.948Z,7.30
2017-11-14T10:15:44.946Z,7.30
2017-11-14T10:16:44.945Z,7.20
2017-11-14T10:17:44.943Z,6.60
2017-11-14T10:18:44.942Z,7.30
2017-11-14T10:19:44.943Z,6.60
2017-11-14T10:20:44.938Z,7.30
2017-11-14T10:21:44.936Z,7.40
2017-11-14T10:22:44.934Z,7.00
2017-11-14T10:23:44.943Z,7.90
2017-11-14T10:24:44.932Z,6.90
2017-11-14T10:25:44.928Z,7.80
2017-11-14T10:26:44.926Z,6.30
2017-11-14T10:27:44.923Z,6.90
2017-11-14T10:28:44.923Z,7.00
2017-11-14T10:29:44.920Z,7.20
2017-11-14T10:30:44.921Z,7.40
2017-11-14T10:31:44.914Z,7.40
2017-11-14T10:32:44.913Z,6.20
2017-11-14T10:33:44.916Z,5.40
2017-11-14T10:34:44.910Z,5.30
2017-11-14T10:35:44.908Z,5.40
2017-11-14T10:36:44.908Z,5.90
2017-11-14T10:37:44.906Z,6.00
2017-11-14T10:38:44.904Z,5.70
2017-11-14T10:39:44.904Z,6.40
2017-11-14T10:40:44.901Z,5.60
2017-11-14T10:41:44.900Z,5.10
2017-11-14T10:42:44.896Z,5.70
2017-11-14T10:43:44.896Z,6.40
2017-11-14T10:44:44.896Z,5.90
2017-11-14T10:45:44.892Z,6.00
2017-11-14T10:46:44.890Z,7.10
2017-11-14T10:47:44.886Z,6.80
2017-11-14T10:48:44.886Z,6.80
2017-11-14T10:49:44.883Z,6.60
2017-11-14T10:50:44.887Z,7.00
2017-11-14T10:51:44.881Z,7.10
2017-11-14T10:52:44.875Z,6.60
2017-11-14T10:53:44.872Z,6.60
2017-11-14T10:54:44.896Z,7.40
2017-11-14T10:55:44.867Z,6.70
2017-11-14T10:56:44.874Z,7.30
2017-11-14T10:57:44.863Z,6.30
2017-11-14T10:58:44.858Z,6.70
2017-11-14T10:59:44.857Z,6.60
2017-11-14T11:00:44.853Z,7.30
2017-11-14T11:01:44.851Z,6.60
2017-11-14T11:02:44.848Z,6.40
2017-11-14T11:03:44.847Z,6.20
2017-11-14T11:04:44.843Z,6.30
2017-11-14T11:05:44.840Z,6.50
2017-11-14T11:06:44.838Z,6.80
2017-11-14T11:07:44.835Z,7.00
2017-11-14T11:08:44.833Z,7.60
2017-11-14T11:09:44.831Z,7.40
2017-11-14T11:10:44.832Z,6.70
2017-11-14T11:11:44.825Z,6.80
2017-11-14T11:12:44.822Z,6.70
2017-11-14T11:13:44.819Z,6.40
2017-11-14T11:14:44.819Z,6.20
2017-11-14T11:15:44.815Z,5.90
2017-11-14T11:16:44.813Z,5.60
2017-11-14T11:17:44.810Z,6.10
2017-11-14T11:18:44.808Z,6.30
2017-11-14T11:19:44.805Z,6.10
2017-11-14T11:20:44.810Z,5.90
2017-11-14T11:21:44.801Z,6.00
2017-11-14T11:22:44.798Z,5.90
2017-11-14T11:23:44.796Z,6.30
2017-11-14T11:24:44.795Z,6.00
2017-11-14T11:25:44.796Z,6.50
2017-11-14T11:26:44.788Z,6.20
2017-11-14T11:27:44.785Z,5.80
2017-11-14T11:28:44.783Z,6.90
2017-11-14T11:29:44.831Z,7.00
2017-11-14T11:30:44.778Z,6.00
2017-11-14T11:31:44.775Z,6.40
2017-11-14T11:32:44.771Z,7.00
2017-11-14T11:33:44.769Z,6.80
2017-11-14T11:34:44.767Z,6.70
2017-11-14T11:35:44.813Z,6.10
2017-11-14T11:36:44.760Z,6.90
2017-11-14T11:37:44.757Z,6.60
2017-11-14T11:38:44.751Z,7.00
2017-11-14T11:39:44.749Z,6.50
2017-11-14T11:40:44.747Z,6.50
2017-11-14T11:41:44.744Z,7.20
2017-11-14T11:42:44.741Z,5.80
2017-11-14T11:43:44.736Z,6.10
2017-11-14T11:44:44.733Z,6.00
2017-11-14T11:45:44.737Z,6.30
2017-11-14T11:46:44.727Z,7.00
2017-11-14T11:47:44.722Z,6.20
2017-11-14T11:48:44.719Z,6.60
2017-11-14T11:49:44.716Z,6.20
2017-11-14T11:50:44.712Z,5.90
2017-11-14T11:51:44.709Z,6.10
2017-11-14T11:52:44.708Z,6.20
2017-11-14T11:53:44.704Z,7.20
2017-11-14T11:54:44.699Z,13.00
2017-11-14T11:55:44.697Z,8.10
2017-11-14T11:56:44.692Z,5.70
2017-11-14T11:57:44.690Z,4.90
2017-11-14T11:58:44.688Z,4.90
2017-11-14T11:59:44.691Z,4.40
2017-11-14T12:00:44.681Z,3.60
2017-11-14T12:01:44.680Z,3.60
2017-11-14T12:02:44.677Z,3.80
2017-11-14T12:03:44.676Z,4.50
2017-11-14T12:04:44.688Z,3.70
2017-11-14T12:05:44.672Z,3.90
2017-11-14T12:06:44.673Z,3.80
2017-11-14T12:07:44.670Z,3.40
2017-11-14T12:08:44.670Z,4.10
2017-11-14T12:09:44.668Z,3.60
2017-11-14T12:10:44.666Z,3.70
2017-11-14T12:11:44.665Z,3.90
2017-11-14T12:12:44.666Z,3.70
2017-11-14T12:13:44.664Z,4.70
2017-11-14T12:14:44.662Z,3.60
2017-11-14T12:15:44.663Z,4.80
2017-11-14T12:16:44.662Z,4.90
2017-11-14T12:17:44.661Z,4.30
2017-11-14T12:18:44.660Z,4.10
2017-11-14T12:19:44.662Z,3.70
2017-11-14T12:20:44.660Z,4.10
2017-11-14T12:21:44.661Z,4.20
2017-11-14T12:22:44.658Z,4.30
2017-11-14T12:23:44.658Z,4.40
2017-11-14T12:24:44.715Z,3.90
2017-11-14T12:25:44.658Z,4.80
2017-11-14T12:26:44.659Z,3.70
2017-11-14T12:27:44.655Z,4.20
2017-11-14T12:28:44.656Z,4.80
2017-11-14T12:29:44.654Z,5.00
2017-11-14T12:30:44.654Z,5.20
2017-11-14T12:31:44.654Z,4.90
2017-11-14T12:32:44.654Z,4.70
2017-11-14T12:33:44.653Z,4.50
2017-11-14T12:34:44.652Z,4.30
2017-11-14T12:35:44.703Z,4.10
2017-11-14T12:36:44.651Z,3.80
2017-11-14T12:37:44.651Z,4.80
2017-11-14T12:38:44.649Z,4.20
2017-11-14T12:39:44.649Z,4.00
2017-11-14T12:40:44.652Z,4.80
2017-11-14T12:41:44.650Z,4.90
2017-11-14T12:42:44.647Z,4.80
2017-11-14T12:43:44.646Z,4.10
2017-11-14T12:44:44.644Z,4.40
2017-11-14T12:45:44.644Z,4.50
2017-11-14T12:46:44.642Z,4.90
2017-11-14T12:47:44.645Z,4.20
2017-11-14T12:48:44.639Z,4.30
2017-11-14T12:49:44.637Z,4.50
2017-11-14T12:50:44.636Z,4.40
2017-11-14T12:51:44.653Z,4.40
2017-11-14T12:52:44.632Z,3.80
2017-11-14T12:53:44.631Z,3.60
2017-11-14T12:54:44.633Z,4.60
2017-11-14T12:55:44.627Z,4.50
2017-11-14T12:56:44.626Z,4.20
2017-11-14T12:57:44.623Z,4.40
2017-11-14T12:58:44.621Z,4.10
2017-11-14T12:59:44.618Z,4.80
2017-11-14T13:00:44.617Z,4.30
2017-11-14T13:01:44.615Z,4.40
2017-11-14T13:02:44.614Z,4.10
2017-11-14T13:03:44.612Z,4.60
2017-11-14T13:04:44.608Z,5.00
2017-11-14T13:05:44.607Z,4.20
2017-11-14T13:06:44.604Z,4.80
2017-11-14T13:07:44.606Z,4.10